Time,TemperatureF,DewpointF,PressureIn,WindDirection,WindDirectionDegrees,WindSpeedMPH,WindSpeedGustMPH,Humidity,HourlyPrecipIn,Conditions,Clouds,dailyrainin,SoftwareType,DateUTC
2013-01-04 00:03:00,23.3,7.9,30.20,South,180,0.0,0.0,51,0.00,,---,0.00,VWS V13.01,2013-01-04 07:03:00,
2013-01-04 00:08:00,23.3,7.4,30.19,SW,225,0.0,0.0,50,0.00,,---,0.00,VWS V13.01,2013-01-04 07:08:00,
2013-01-04 00:13:00,23.5,7.6,30.20,SSW,202,0.0,0.0,50,0.00,,---,0.00,VWS V13.01,2013-01-04 07:13:00,
2013-01-04 00:19:00,23.3,7.4,30.19,SSE,158,0.0,0.0,50,0.00,,---,0.00,VWS V13.01,2013-01-04 07:19:00,
2013-01-04 00:24:00,23.3,7.4,30.19,SW,225,0.0,0.0,50,0.00,,---,0.00,VWS V13.01,2013-01-04 07:24:00,
2013-01-04 00:29:00,23.3,7.4,30.18,SSW,202,0.0,0.0,50,0.00,,---,0.00,VWS V13.01,2013-01-04 07:29:00,
2013-01-04 00:34:00,23.1,7.2,30.18,SSW,202,8.7,8.7,50,0.00,,---,0.00,VWS V13.01,2013-01-04 07:34:00,
2013-01-04 00:39:00,23.1,7.2,30.18,ENE,68,0.0,0.0,50,0.00,,---,0.00,VWS V13.01,2013-01-04 07:39:00,
2013-01-04 00:44:00,23.1,7.2,30.18,SSW,202,0.0,0.0,50,0.00,,---,0.00,VWS V13.01,2013-01-04 07:44:00,
2013-01-04 00:49:00,23.1,7.2,30.18,SSW,202,0.0,0.0,50,0.00,,---,0.00,VWS V13.01,2013-01-04 07:49:00,
2013-01-04 00:55:00,23.1,7.2,30.18,SSW,202,0.0,0.0,50,0.00,,---,0.00,VWS V13.01,2013-01-04 07:55:00,
2013-01-04 01:00:00,23.1,7.2,30.17,SW,225,0.0,0.0,50,0.00,,---,0.00,VWS V13.01,2013-01-04 08:00:00,
2013-01-04 01:05:00,23.1,7.2,30.17,SSW,202,0.0,0.0,50,0.00,,---,0.00,VWS V13.01,2013-01-04 08:05:00,
2013-01-04 01:11:00,23.3,7.4,30.17,SW,225,0.0,0.0,50,0.00,,---,0.00,VWS V13.01,2013-01-04 08:11:00,
2013-01-04 01:16:00,23.3,7.4,30.17,South,180,0.0,0.0,50,0.00,,---,0.00,VWS V13.01,2013-01-04 08:16:00,
2013-01-04 01:21:00,23.5,7.6,30.17,SW,225,0.0,0.0,50,0.00,,---,0.00,VWS V13.01,2013-01-04 08:21:00,
2013-01-04 01:26:00,23.5,7.6,30.17,SSW,202,0.0,0.0,50,0.00,,---,0.00,VWS V13.01,2013-01-04 08:26:00,
2013-01-04 01:31:00,23.5,7.6,30.17,SSW,202,0.0,0.0,50,0.00,,---,0.00,VWS V13.01,2013-01-04 08:31:00,
2013-01-04 01:36:00,23.5,7.6,30.16,South,180,5.1,5.1,50,0.00,,---,0.00,VWS V13.01,2013-01-04 08:36:00,
2013-01-04 01:41:00,23.5,7.6,30.16,SW,225,0.0,4.2,50,0.00,,---,0.00,VWS V13.01,2013-01-04 08:41:00,
2013-01-04 01:47:00,23.5,7.6,30.17,SW,225,0.0,0.0,50,0.00,,---,0.00,VWS V13.01,2013-01-04 08:47:00,
2013-01-04 01:52:00,23.5,7.6,30.16,SSW,202,0.0,0.0,50,0.00,,---,0.00,VWS V13.01,2013-01-04 08:52:00,
2013-01-04 01:57:00,23.7,7.8,30.16,South,180,0.0,0.0,50,0.00,,---,0.00,VWS V13.01,2013-01-04 08:57:00,
2013-01-04 02:02:00,23.7,7.8,30.16,South,180,0.0,0.0,50,0.00,,---,0.00,VWS V13.01,2013-01-04 09:02:00,
2013-01-04 02:07:00,23.7,7.8,30.16,WSW,248,0.0,0.0,50,0.00,,---,0.00,VWS V13.01,2013-01-04 09:07:00,
2013-01-04 02:12:00,23.7,7.8,30.15,South,180,0.0,0.0,50,0.00,,---,0.00,VWS V13.01,2013-01-04 09:12:00,
2013-01-04 02:17:00,23.7,7.8,30.15,South,180,0.0,0.0,50,0.00,,---,0.00,VWS V13.01,2013-01-04 09:17:00,
2013-01-04 02:22:00,23.9,8.0,30.15,SSW,202,0.0,0.0,50,0.00,,---,0.00,VWS V13.01,2013-01-04 09:22:00,
2013-01-04 02:27:00,24.0,8.1,30.16,SSW,202,0.0,0.0,50,0.00,,---,0.00,VWS V13.01,2013-01-04 09:27:00,
2013-01-04 02:32:00,24.0,8.1,30.15,SW,225,0.0,0.0,50,0.00,,---,0.00,VWS V13.01,2013-01-04 09:32:00,
2013-01-04 02:37:00,24.0,8.1,30.15,South,180,0.0,0.0,50,0.00,,---,0.00,VWS V13.01,2013-01-04 09:37:00,
2013-01-04 02:42:00,24.0,8.1,30.15,SW,225,0.0,0.0,50,0.00,,---,0.00,VWS V13.01,2013-01-04 09:42:00,
2013-01-04 02:47:00,24.4,8.4,30.15,SSW,202,0.0,0.0,50,0.00,,---,0.00,VWS V13.01,2013-01-04 09:47:00,
2013-01-04 02:52:00,24.4,8.4,30.15,SSW,202,0.0,0.0,50,0.00,,---,0.00,VWS V13.01,2013-01-04 09:52:00,
2013-01-04 02:57:00,24.4,8.4,30.15,SW,225,11.4,11.4,50,0.00,,---,0.00,VWS V13.01,2013-01-04 09:57:00,
2013-01-04 03:02:00,24.6,8.6,30.15,South,180,0.0,0.0,50,0.00,,---,0.00,VWS V13.01,2013-01-04 10:02:00,
2013-01-04 03:08:00,24.6,8.6,30.15,SSW,202,2.4,13.1,50,0.00,,---,0.00,VWS V13.01,2013-01-04 10:08:00,
2013-01-04 03:13:00,24.6,8.6,30.15,SSW,202,6.7,6.7,50,0.00,,---,0.00,VWS V13.01,2013-01-04 10:13:00,
2013-01-04 03:18:00,24.6,8.6,30.15,SSW,202,4.0,4.0,50,0.00,,---,0.00,VWS V13.01,2013-01-04 10:18:00,
2013-01-04 03:23:00,24.6,8.6,30.16,SW,225,4.9,4.9,50,0.00,,---,0.00,VWS V13.01,2013-01-04 10:23:00,
2013-01-04 03:28:00,24.4,8.4,30.17,SSW,202,6.9,6.9,50,0.00,,---,0.00,VWS V13.01,2013-01-04 10:28:00,
2013-01-04 03:33:00,24.4,8.4,30.17,SSW,202,7.1,7.1,50,0.00,,---,0.00,VWS V13.01,2013-01-04 10:33:00,
2013-01-04 03:38:00,24.0,8.1,30.17,SSW,202,3.8,9.6,50,0.00,,---,0.00,VWS V13.01,2013-01-04 10:38:00,
2013-01-04 03:43:00,24.0,8.1,30.17,SSW,202,0.0,3.5,50,0.00,,---,0.00,VWS V13.01,2013-01-04 10:43:00,
2013-01-04 03:48:00,23.9,8.0,30.18,SW,225,0.0,0.0,50,0.00,,---,0.00,VWS V13.01,2013-01-04 10:48:00,
2013-01-04 03:53:00,23.7,7.8,30.17,SSW,202,0.0,0.0,50,0.00,,---,0.00,VWS V13.01,2013-01-04 10:53:00,
2013-01-04 03:59:00,23.5,8.1,30.17,SW,225,0.0,0.0,51,0.00,,---,0.00,VWS V13.01,2013-01-04 10:59:00,
2013-01-04 04:04:00,23.5,8.1,30.17,SSW,202,1.5,1.5,51,0.00,,---,0.00,VWS V13.01,2013-01-04 11:04:00,
2013-01-04 04:09:00,23.5,8.1,30.18,South,180,0.0,0.0,51,0.00,,---,0.00,VWS V13.01,2013-01-04 11:09:00,
2013-01-04 04:15:00,23.7,8.2,30.17,SW,225,6.2,6.2,51,0.00,,---,0.00,VWS V13.01,2013-01-04 11:15:00,
2013-01-04 04:20:00,23.9,8.4,30.18,SSW,202,0.0,0.0,51,0.00,,---,0.00,VWS V13.01,2013-01-04 11:20:00,
2013-01-04 04:25:00,23.9,8.4,30.18,SSW,202,4.9,4.9,51,0.00,,---,0.00,VWS V13.01,2013-01-04 11:25:00,
2013-01-04 04:30:00,24.0,8.5,30.17,SSE,158,0.0,7.1,51,0.00,,---,0.00,VWS V13.01,2013-01-04 11:30:00,
2013-01-04 04:35:00,24.0,8.5,30.18,SSW,202,0.0,0.0,51,0.00,,---,0.00,VWS V13.01,2013-01-04 11:35:00,
2013-01-04 04:41:00,24.0,8.1,30.17,SSW,202,0.0,0.0,50,0.00,,---,0.00,VWS V13.01,2013-01-04 11:41:00,
2013-01-04 04:46:00,24.0,8.1,30.16,SSW,202,0.0,0.0,50,0.00,,---,0.00,VWS V13.01,2013-01-04 11:46:00,
2013-01-04 04:51:00,24.4,8.4,30.16,SSW,202,0.0,0.0,50,0.00,,---,0.00,VWS V13.01,2013-01-04 11:51:00,
2013-01-04 04:56:00,24.4,8.4,30.16,SSW,202,0.0,0.0,50,0.00,,---,0.00,VWS V13.01,2013-01-04 11:56:00,
2013-01-04 05:01:00,24.4,8.9,30.16,SSW,202,0.0,0.0,51,0.00,,---,0.00,VWS V13.01,2013-01-04 12:01:00,
2013-01-04 05:06:00,24.6,9.1,30.16,South,180,0.0,0.0,51,0.00,,---,0.00,VWS V13.01,2013-01-04 12:06:00,
2013-01-04 05:11:00,24.6,9.1,30.16,SSW,202,0.0,0.0,51,0.00,,---,0.00,VWS V13.01,2013-01-04 12:11:00,
2013-01-04 05:16:00,24.6,9.1,30.16,SSW,202,8.7,8.7,51,0.00,,---,0.00,VWS V13.01,2013-01-04 12:16:00,
2013-01-04 05:21:00,24.9,9.4,30.16,South,180,6.7,6.7,51,0.00,,---,0.00,VWS V13.01,2013-01-04 12:21:00,
2013-01-04 05:26:00,24.9,9.4,30.16,ESE,112,0.0,0.0,51,0.00,,---,0.00,VWS V13.01,2013-01-04 12:26:00,
2013-01-04 05:31:00,24.9,8.9,30.17,SE,135,0.0,0.0,50,0.00,,---,0.00,VWS V13.01,2013-01-04 12:31:00,
2013-01-04 05:36:00,25.1,9.1,30.17,SSE,158,0.0,0.0,50,0.00,,---,0.00,VWS V13.01,2013-01-04 12:36:00,
2013-01-04 05:41:00,25.3,9.3,30.17,SSW,202,0.0,0.0,50,0.00,,---,0.00,VWS V13.01,2013-01-04 12:41:00,
2013-01-04 05:46:00,25.3,9.3,100.00,SSW,202,0.0,0.0,50,0.00,,---,0.00,VWS V13.01,2013-01-04 12:46:00,
2013-01-04 05:51:00,25.5,9.5,30.17,WSW,248,0.0,0.0,50,0.00,,---,0.00,VWS V13.01,2013-01-04 12:51:00,
2013-01-04 05:56:00,25.5,9.5,30.17,SW,225,0.0,0.0,50,0.00,,---,0.00,VWS V13.01,2013-01-04 12:56:00,
2013-01-04 06:02:00,25.5,9.5,30.17,South,180,0.0,12.9,50,0.00,,---,0.00,VWS V13.01,2013-01-04 13:02:00,
2013-01-04 06:07:00,25.5,9.5,30.17,South,180,0.0,0.0,50,0.00,,---,0.00,VWS V13.01,2013-01-04 13:07:00,
2013-01-04 06:12:00,25.5,9.5,30.18,South,180,0.0,0.0,50,0.00,,---,0.00,VWS V13.01,2013-01-04 13:12:00,
2013-01-04 06:17:00,25.5,9.5,30.18,South,180,0.0,7.6,50,0.00,,---,0.00,VWS V13.01,2013-01-04 13:17:00,
2013-01-04 06:22:00,25.5,9.5,30.18,SSW,202,0.0,0.0,50,0.00,,---,0.00,VWS V13.01,2013-01-04 13:22:00,
2013-01-04 06:28:00,25.5,9.5,30.18,SSW,202,0.0,0.0,50,0.00,,---,0.00,VWS V13.01,2013-01-04 13:28:00,
2013-01-04 06:33:00,25.5,9.5,30.19,SSW,202,0.0,0.0,50,0.00,,---,0.00,VWS V13.01,2013-01-04 13:33:00,
2013-01-04 06:38:00,25.5,9.5,30.19,South,180,0.0,0.0,50,0.00,,---,0.00,VWS V13.01,2013-01-04 13:38:00,
2013-01-04 06:43:00,25.5,9.5,30.19,SSW,202,0.0,0.0,50,0.00,,---,0.00,VWS V13.01,2013-01-04 13:43:00,
2013-01-04 06:48:00,25.5,9.5,30.19,South,180,0.0,0.0,50,0.00,,---,0.00,VWS V13.01,2013-01-04 13:48:00,
2013-01-04 06:53:00,25.7,9.6,30.19,SSW,202,0.0,0.0,50,0.00,,---,0.00,VWS V13.01,2013-01-04 13:53:00,
2013-01-04 06:58:00,25.7,9.6,30.19,SSW,202,6.4,6.4,50,0.00,,---,0.00,VWS V13.01,2013-01-04 13:58:00,
2013-01-04 07:03:00,25.8,9.7,30.19,SSW,202,5.8,5.8,50,0.00,,---,0.00,VWS V13.01,2013-01-04 14:03:00,
2013-01-04 07:08:00,25.8,9.7,30.18,South,180,0.0,0.0,50,0.00,,---,0.00,VWS V13.01,2013-01-04 14:08:00,
2013-01-04 07:13:00,25.8,9.7,30.19,South,180,0.0,2.6,50,0.00,,---,0.00,VWS V13.01,2013-01-04 14:13:00,
2013-01-04 07:18:00,26.0,9.9,30.19,WSW,248,0.0,0.0,50,0.00,,---,0.00,VWS V13.01,2013-01-04 14:18:00,
2013-01-04 07:23:00,26.2,10.1,30.19,SW,225,0.0,1.1,50,0.00,,---,0.00,VWS V13.01,2013-01-04 14:23:00,
2013-01-04 07:29:00,26.2,10.1,30.19,SSW,202,0.0,0.0,50,0.00,,---,0.00,VWS V13.01,2013-01-04 14:29:00,
2013-01-04 07:34:00,26.4,10.3,30.19,South,180,0.0,6.7,50,0.00,,---,0.00,VWS V13.01,2013-01-04 14:34:00,
2013-01-04 07:39:00,26.4,10.3,30.19,SSW,202,6.2,6.2,50,0.00,,---,0.00,VWS V13.01,2013-01-04 14:39:00,
2013-01-04 07:45:00,26.4,10.3,30.19,SSW,202,6.0,6.0,50,0.00,,---,0.00,VWS V13.01,2013-01-04 14:45:00,
2013-01-04 07:50:00,26.4,10.3,30.19,SSW,202,3.8,3.8,50,0.00,,---,0.00,VWS V13.01,2013-01-04 14:50:00,
2013-01-04 07:55:00,26.4,9.8,30.19,SSW,202,0.0,0.0,49,0.00,,---,0.00,VWS V13.01,2013-01-04 14:55:00,
2013-01-04 08:00:00,26.4,9.8,30.19,SE,135,0.0,0.0,49,0.00,,---,0.00,VWS V13.01,2013-01-04 15:00:00,
2013-01-04 08:05:00,26.4,9.8,30.19,SE,135,0.0,0.0,49,0.00,,---,0.00,VWS V13.01,2013-01-04 15:05:00,
2013-01-04 08:10:00,26.4,9.8,30.20,SSW,202,0.0,0.0,49,0.00,,---,0.00,VWS V13.01,2013-01-04 15:10:00,
2013-01-04 08:15:00,26.4,9.8,30.19,SSW,202,0.0,0.0,49,0.00,,---,0.00,VWS V13.01,2013-01-04 15:15:00,
2013-01-04 08:21:00,26.6,10.0,30.19,SW,225,0.0,0.0,49,0.00,,---,0.00,VWS V13.01,2013-01-04 15:21:00,
2013-01-04 08:26:00,26.6,10.0,30.19,SSW,202,8.2,8.2,49,0.00,,---,0.00,VWS V13.01,2013-01-04 15:26:00,
2013-01-04 08:31:00,26.4,9.8,30.19,SSW,202,11.4,11.4,49,0.00,,---,0.00,VWS V13.01,2013-01-04 15:31:00,
2013-01-04 08:36:00,26.4,9.8,30.19,SW,225,7.1,7.6,49,0.00,,---,0.00,VWS V13.01,2013-01-04 15:36:00,
2013-01-04 08:41:00,26.4,9.8,30.19,SSW,202,8.9,8.9,49,0.00,,---,0.00,VWS V13.01,2013-01-04 15:41:00,
2013-01-04 08:46:00,26.4,9.8,30.20,SSW,202,11.4,11.4,49,0.00,,---,0.00,VWS V13.01,2013-01-04 15:46:00,
2013-01-04 08:51:00,26.2,9.7,30.20,SSW,202,11.1,11.1,49,0.00,,---,0.00,VWS V13.01,2013-01-04 15:51:00,
2013-01-04 08:56:00,26.2,9.7,30.20,SSW,202,9.1,9.1,49,0.00,,---,0.00,VWS V13.01,2013-01-04 15:56:00,
2013-01-04 09:01:00,26.2,9.7,30.20,South,180,9.6,9.6,49,0.00,,---,0.00,VWS V13.01,2013-01-04 16:01:00,
2013-01-04 09:06:00,26.2,9.7,30.20,SW,225,0.0,2.0,49,0.00,,---,0.00,VWS V13.01,2013-01-04 16:06:00,
2013-01-04 09:11:00,26.4,9.8,30.20,SSW,202,0.0,0.0,49,0.00,,---,0.00,VWS V13.01,2013-01-04 16:11:00,
2013-01-04 09:16:00,26.2,10.1,30.21,SSW,202,0.0,0.0,50,0.00,,---,0.00,VWS V13.01,2013-01-04 16:16:00,
2013-01-04 09:21:00,26.2,10.1,30.20,SSW,202,0.0,0.0,50,0.00,,---,0.00,VWS V13.01,2013-01-04 16:21:00,
2013-01-04 09:26:00,26.2,10.1,30.21,SSW,202,0.0,0.0,50,0.00,,---,0.00,VWS V13.01,2013-01-04 16:26:00,
2013-01-04 09:31:00,26.2,10.1,30.21,South,180,0.0,0.0,50,0.00,,---,0.00,VWS V13.01,2013-01-04 16:31:00,
2013-01-04 09:36:00,26.4,10.3,30.21,SSW,202,0.0,0.0,50,0.00,,---,0.00,VWS V13.01,2013-01-04 16:36:00,
2013-01-04 09:41:00,26.6,10.5,30.21,SSW,202,7.6,7.6,50,0.00,,---,0.00,VWS V13.01,2013-01-04 16:41:00,
2013-01-04 09:46:00,26.9,10.8,30.21,South,180,0.0,0.0,50,0.00,,---,0.00,VWS V13.01,2013-01-04 16:46:00,
2013-01-04 09:51:00,27.3,11.1,30.21,South,180,0.0,0.0,50,0.00,,---,0.00,VWS V13.01,2013-01-04 16:51:00,
2013-01-04 09:56:00,27.6,11.4,30.21,South,180,3.5,3.5,50,0.00,,---,0.00,VWS V13.01,2013-01-04 16:56:00,
2013-01-04 10:01:00,28.0,11.8,30.21,SSW,202,10.7,10.7,50,0.00,,---,0.00,VWS V13.01,2013-01-04 17:01:00,
2013-01-04 10:06:00,28.2,12.0,30.21,SW,225,9.3,9.3,50,0.00,,---,0.00,VWS V13.01,2013-01-04 17:06:00,
2013-01-04 10:11:00,28.7,12.4,30.21,SSW,202,6.4,6.4,50,0.00,,---,0.00,VWS V13.01,2013-01-04 17:11:00,
2013-01-04 10:16:00,29.1,12.3,30.21,SSW,202,14.7,14.7,49,0.00,,---,0.00,VWS V13.01,2013-01-04 17:16:00,
2013-01-04 10:21:00,29.4,12.6,30.21,South,180,12.0,12.0,49,0.00,,---,0.00,VWS V13.01,2013-01-04 17:21:00,
2013-01-04 10:26:00,29.8,13.0,30.21,SSW,202,9.1,9.1,49,0.00,,---,0.00,VWS V13.01,2013-01-04 17:26:00,
2013-01-04 10:31:00,30.0,13.2,30.21,SSW,202,12.0,12.0,49,0.00,,---,0.00,VWS V13.01,2013-01-04 17:31:00,
2013-01-04 10:36:00,30.2,13.4,30.21,SSW,202,0.0,0.0,49,0.00,,---,0.00,VWS V13.01,2013-01-04 17:36:00,
2013-01-04 10:41:00,30.3,13.4,30.21,SSW,202,0.0,0.0,49,0.00,,---,0.00,VWS V13.01,2013-01-04 17:41:00,
2013-01-04 10:46:00,30.7,13.8,30.21,SW,225,0.0,0.0,49,0.00,,---,0.00,VWS V13.01,2013-01-04 17:46:00,
2013-01-04 10:51:00,30.7,13.8,30.21,WSW,248,0.0,0.0,49,0.00,,---,0.00,VWS V13.01,2013-01-04 17:51:00,
2013-01-04 10:56:00,30.9,13.5,30.21,WSW,248,0.0,0.0,48,0.00,,---,0.00,VWS V13.01,2013-01-04 17:56:00,
2013-01-04 11:01:00,31.1,13.7,30.21,South,180,0.0,0.0,48,0.00,,---,0.00,VWS V13.01,2013-01-04 18:01:00,
2013-01-04 11:06:00,31.2,13.8,30.21,SW,225,0.0,0.0,48,0.00,,---,0.00,VWS V13.01,2013-01-04 18:06:00,
2013-01-04 11:11:00,31.6,14.2,30.21,WSW,248,0.0,0.0,48,0.00,,---,0.00,VWS V13.01,2013-01-04 18:11:00,
2013-01-04 11:16:00,31.8,14.4,30.20,SW,225,9.3,15.4,48,0.00,,---,0.00,VWS V13.01,2013-01-04 18:16:00,
2013-01-04 11:21:00,31.8,14.4,30.20,SSW,202,6.4,6.4,48,0.00,,---,0.00,VWS V13.01,2013-01-04 18:21:00,
2013-01-04 11:26:00,32.0,14.6,30.20,SSW,202,10.2,10.2,48,0.00,,---,0.00,VWS V13.01,2013-01-04 18:26:00,
2013-01-04 11:31:00,32.1,14.6,30.20,SW,225,0.0,0.0,48,0.00,,---,0.00,VWS V13.01,2013-01-04 18:31:00,
2013-01-04 11:36:00,32.1,14.6,30.20,WSW,248,0.0,0.0,48,0.00,,---,0.00,VWS V13.01,2013-01-04 18:36:00,
2013-01-04 11:41:00,32.1,14.6,30.20,SW,225,0.0,0.0,48,0.00,,---,0.00,VWS V13.01,2013-01-04 18:41:00,
2013-01-04 11:46:00,32.1,14.6,30.19,SSW,202,0.0,0.0,48,0.00,,---,0.00,VWS V13.01,2013-01-04 18:46:00,
2013-01-04 11:51:00,32.3,14.8,30.19,WSW,248,0.0,0.0,48,0.00,,---,0.00,VWS V13.01,2013-01-04 18:51:00,
2013-01-04 11:56:00,32.3,14.8,30.19,SW,225,0.0,0.0,48,0.00,,---,0.00,VWS V13.01,2013-01-04 18:56:00,
2013-01-04 12:01:00,32.3,14.8,30.18,SW,225,0.0,0.0,48,0.00,,---,0.00,VWS V13.01,2013-01-04 19:01:00,
2013-01-04 12:06:00,32.3,14.8,30.18,SSW,202,0.0,0.0,48,0.00,,---,0.00,VWS V13.01,2013-01-04 19:06:00,
2013-01-04 12:11:00,32.3,14.8,30.18,SSW,202,0.0,0.0,48,0.00,,---,0.00,VWS V13.01,2013-01-04 19:11:00,
2013-01-04 12:16:00,32.3,14.8,30.18,SW,225,0.0,0.0,48,0.00,,---,0.00,VWS V13.01,2013-01-04 19:16:00,
2013-01-04 12:21:00,32.5,15.0,30.17,SW,225,0.0,6.2,48,0.00,,---,0.00,VWS V13.01,2013-01-04 19:21:00,
2013-01-04 12:26:00,32.7,15.2,30.17,SSW,202,4.6,4.6,48,0.00,,---,0.00,VWS V13.01,2013-01-04 19:26:00,
2013-01-04 12:31:00,32.7,15.2,30.17,SSW,202,0.0,0.0,48,0.00,,---,0.00,VWS V13.01,2013-01-04 19:31:00,
2013-01-04 12:36:00,32.9,15.4,30.16,WSW,248,0.0,0.0,48,0.00,,---,0.00,VWS V13.01,2013-01-04 19:36:00,
2013-01-04 12:41:00,32.9,15.4,30.16,SSW,202,0.0,0.0,48,0.00,,---,0.00,VWS V13.01,2013-01-04 19:41:00,
2013-01-04 12:46:00,33.0,15.5,30.16,SW,225,0.0,0.0,48,0.00,,---,0.00,VWS V13.01,2013-01-04 19:46:00,
2013-01-04 12:51:00,33.2,15.6,30.15,SSW,202,0.0,0.0,48,0.00,,---,0.00,VWS V13.01,2013-01-04 19:51:00,
2013-01-04 12:56:00,33.4,15.8,30.15,SSW,202,0.0,0.0,48,0.00,,---,0.00,VWS V13.01,2013-01-04 19:56:00,
2013-01-04 13:01:00,33.6,16.0,30.15,SW,225,0.0,0.0,48,0.00,,---,0.00,VWS V13.01,2013-01-04 20:01:00,
2013-01-04 13:06:00,33.9,16.3,30.15,SSE,158,0.0,0.0,48,0.00,,---,0.00,VWS V13.01,2013-01-04 20:06:00,
2013-01-04 13:11:00,34.3,16.7,30.14,SSW,202,0.0,0.0,48,0.00,,---,0.00,VWS V13.01,2013-01-04 20:11:00,
2013-01-04 13:16:00,34.3,16.2,30.14,SSW,202,4.0,8.2,47,0.00,,---,0.00,VWS V13.01,2013-01-04 20:16:00,
2013-01-04 13:21:00,34.8,16.6,30.15,SW,225,3.3,9.3,47,0.00,,---,0.00,VWS V13.01,2013-01-04 20:21:00,
2013-01-04 13:26:00,35.2,17.5,30.14,South,180,4.6,4.6,48,0.00,,---,0.00,VWS V13.01,2013-01-04 20:26:00,
2013-01-04 13:31:00,35.4,17.2,30.14,SSW,202,6.2,6.2,47,0.00,,---,0.00,VWS V13.01,2013-01-04 20:31:00,
2013-01-04 13:36:00,35.7,17.5,30.14,SSW,202,17.0,17.0,47,0.00,,---,0.00,VWS V13.01,2013-01-04 20:36:00,
2013-01-04 13:41:00,35.7,17.0,30.14,South,180,6.2,6.2,46,0.00,,---,0.00,VWS V13.01,2013-01-04 20:41:00,
2013-01-04 13:46:00,35.9,17.1,30.14,SSW,202,8.2,9.8,46,0.00,,---,0.00,VWS V13.01,2013-01-04 20:46:00,
2013-01-04 13:51:00,36.1,17.3,30.14,SW,225,5.5,12.3,46,0.00,,---,0.00,VWS V13.01,2013-01-04 20:51:00,
2013-01-04 13:57:00,36.3,17.0,30.14,SSW,202,6.7,6.9,45,0.00,,---,0.00,VWS V13.01,2013-01-04 20:57:00,
2013-01-04 14:02:00,36.3,17.0,30.14,SW,225,12.7,12.7,45,0.00,,---,0.00,VWS V13.01,2013-01-04 21:02:00,
2013-01-04 14:07:00,36.5,17.2,30.14,WSW,248,2.6,2.6,45,0.00,,---,0.00,VWS V13.01,2013-01-04 21:07:00,
2013-01-04 14:13:00,36.6,17.3,30.14,WSW,248,2.2,2.2,45,0.00,,---,0.00,VWS V13.01,2013-01-04 21:13:00,
2013-01-04 14:18:00,36.6,17.3,30.14,WSW,248,11.4,11.4,45,0.00,,---,0.00,VWS V13.01,2013-01-04 21:18:00,
2013-01-04 14:23:00,36.6,17.3,30.14,SW,225,5.1,7.8,45,0.00,,---,0.00,VWS V13.01,2013-01-04 21:23:00,
2013-01-04 14:28:00,36.8,17.5,30.14,SSW,202,4.4,4.4,45,0.00,,---,0.00,VWS V13.01,2013-01-04 21:28:00,
2013-01-04 14:33:00,36.8,17.5,30.14,SW,225,6.2,6.2,45,0.00,,---,0.00,VWS V13.01,2013-01-04 21:33:00,
2013-01-04 14:38:00,37.0,17.6,30.14,WSW,248,5.3,5.3,45,0.00,,---,0.00,VWS V13.01,2013-01-04 21:38:00,
2013-01-04 14:43:00,37.2,17.8,30.14,SW,225,9.6,9.6,45,0.00,,---,0.00,VWS V13.01,2013-01-04 21:43:00,
2013-01-04 14:48:00,37.2,17.8,30.15,SW,225,9.3,9.3,45,0.00,,---,0.00,VWS V13.01,2013-01-04 21:48:00,
2013-01-04 14:53:00,37.4,18.0,30.15,SSW,202,5.8,7.3,45,0.00,,---,0.00,VWS V13.01,2013-01-04 21:53:00,
2013-01-04 14:58:00,37.5,17.6,30.15,SSW,202,12.0,12.0,44,0.00,,---,0.00,VWS V13.01,2013-01-04 21:58:00,
2013-01-04 15:03:00,37.5,17.6,30.14,SSW,202,5.5,5.5,44,0.00,,---,0.00,VWS V13.01,2013-01-04 22:03:00,
2013-01-04 15:08:00,37.5,18.1,30.14,SW,225,6.7,6.7,45,0.00,,---,0.00,VWS V13.01,2013-01-04 22:08:00,
2013-01-04 15:13:00,37.5,18.1,30.14,SSW,202,6.7,6.7,45,0.00,,---,0.00,VWS V13.01,2013-01-04 22:13:00,
2013-01-04 15:18:00,37.5,18.1,30.14,SSW,202,6.4,6.4,45,0.00,,---,0.00,VWS V13.01,2013-01-04 22:18:00,
2013-01-04 15:23:00,37.5,18.1,30.15,SSW,202,7.1,7.1,45,0.00,,---,0.00,VWS V13.01,2013-01-04 22:23:00,
2013-01-04 15:28:00,37.4,18.0,30.15,SSW,202,7.8,7.8,45,0.00,,---,0.00,VWS V13.01,2013-01-04 22:28:00,
2013-01-04 15:33:00,37.4,18.0,30.15,SSW,202,4.6,4.6,45,0.00,,---,0.00,VWS V13.01,2013-01-04 22:33:00,
2013-01-04 15:38:00,37.4,18.0,30.15,SW,225,4.9,6.4,45,0.00,,---,0.00,VWS V13.01,2013-01-04 22:38:00,
2013-01-04 15:43:00,37.4,18.0,30.15,South,180,7.3,7.3,45,0.00,,---,0.00,VWS V13.01,2013-01-04 22:43:00,
2013-01-04 15:48:00,37.2,17.8,30.16,SSW,202,3.1,3.5,45,0.00,,---,0.00,VWS V13.01,2013-01-04 22:48:00,
2013-01-04 15:53:00,37.2,17.8,30.16,SSW,202,3.8,3.8,45,0.00,,---,0.00,VWS V13.01,2013-01-04 22:53:00,
2013-01-04 15:58:00,37.2,17.8,30.16,SSW,202,5.5,5.5,45,0.00,,---,0.00,VWS V13.01,2013-01-04 22:58:00,
2013-01-04 16:03:00,37.0,17.6,30.16,SSW,202,6.7,6.7,45,0.00,,---,0.00,VWS V13.01,2013-01-04 23:03:00,
2013-01-04 16:08:00,36.8,17.5,30.17,SSW,202,4.2,4.6,45,0.00,,---,0.00,VWS V13.01,2013-01-04 23:08:00,
2013-01-04 16:13:00,36.6,17.3,30.17,SSW,202,1.3,1.3,45,0.00,,---,0.00,VWS V13.01,2013-01-04 23:13:00,
2013-01-04 16:18:00,36.5,17.2,30.17,SSW,202,5.1,5.1,45,0.00,,---,0.00,VWS V13.01,2013-01-04 23:18:00,
2013-01-04 16:23:00,36.3,17.0,30.17,SSW,202,7.6,7.6,45,0.00,,---,0.00,VWS V13.01,2013-01-04 23:23:00,
2013-01-04 16:29:00,36.1,16.8,30.17,SSW,202,0.0,4.2,45,0.00,,---,0.00,VWS V13.01,2013-01-04 23:29:00,
2013-01-04 16:34:00,36.1,16.8,30.17,SSW,202,1.1,1.1,45,0.00,,---,0.00,VWS V13.01,2013-01-04 23:34:00,
2013-01-04 16:39:00,35.9,16.6,30.17,SSW,202,3.5,3.5,45,0.00,,---,0.00,VWS V13.01,2013-01-04 23:39:00,
2013-01-04 16:44:00,35.6,16.4,30.16,SSW,202,3.5,4.0,45,0.00,,---,0.00,VWS V13.01,2013-01-04 23:44:00,
2013-01-04 16:49:00,35.4,16.7,30.16,SSW,202,0.0,2.6,46,0.00,,---,0.00,VWS V13.01,2013-01-04 23:49:00,
2013-01-04 16:54:00,35.0,16.3,30.16,SSW,202,0.0,0.0,46,0.00,,---,0.00,VWS V13.01,2013-01-04 23:54:00,
2013-01-04 16:59:00,34.5,15.4,30.16,South,180,0.0,2.6,45,0.00,,---,0.00,VWS V13.01,2013-01-04 23:59:00,
2013-01-04 17:04:00,34.3,15.2,30.16,SSW,202,0.0,0.0,45,0.00,,---,0.00,VWS V13.01,2013-01-05 00:04:00,
2013-01-04 17:09:00,34.3,15.7,30.16,SSW,202,1.5,1.5,46,0.00,,---,0.00,VWS V13.01,2013-01-05 00:09:00,
2013-01-04 17:14:00,33.9,14.8,30.16,SSW,202,4.6,4.6,45,0.00,,---,0.00,VWS V13.01,2013-01-05 00:14:00,
2013-01-04 17:19:00,33.8,14.7,30.16,South,180,2.9,2.9,45,0.00,,---,0.00,VWS V13.01,2013-01-05 00:19:00,
2013-01-04 17:24:00,33.6,14.5,30.16,SSW,202,9.1,9.1,45,0.00,,---,0.00,VWS V13.01,2013-01-05 00:24:00,
2013-01-04 17:29:00,33.4,14.9,30.16,SSW,202,8.0,10.2,46,0.00,,---,0.00,VWS V13.01,2013-01-05 00:29:00,
2013-01-04 17:34:00,33.2,14.7,30.16,South,180,3.1,4.6,46,0.00,,---,0.00,VWS V13.01,2013-01-05 00:34:00,
2013-01-04 17:39:00,33.0,14.5,30.17,SSW,202,2.9,2.9,46,0.00,,---,0.00,VWS V13.01,2013-01-05 00:39:00,
2013-01-04 17:44:00,32.9,14.4,30.17,SW,225,3.8,6.2,46,0.00,,---,0.00,VWS V13.01,2013-01-05 00:44:00,
2013-01-04 17:49:00,32.7,14.2,30.17,SW,225,0.0,0.0,46,0.00,,---,0.00,VWS V13.01,2013-01-05 00:49:00,
2013-01-04 17:54:00,32.5,14.0,30.17,SW,225,1.5,1.5,46,0.00,,---,0.00,VWS V13.01,2013-01-05 00:54:00,
2013-01-04 17:59:00,32.1,13.7,30.17,SSW,202,0.0,0.0,46,0.00,,---,0.00,VWS V13.01,2013-01-05 00:59:00,
2013-01-04 18:04:00,32.1,14.2,30.16,SSW,202,0.0,0.0,47,0.00,,---,0.00,VWS V13.01,2013-01-05 01:04:00,
2013-01-04 18:09:00,31.8,13.9,30.17,SE,135,2.4,2.4,47,0.00,,---,0.00,VWS V13.01,2013-01-05 01:09:00,
2013-01-04 18:14:00,31.6,13.7,30.17,SE,135,0.0,0.0,47,0.00,,---,0.00,VWS V13.01,2013-01-05 01:14:00,
2013-01-04 18:19:00,31.4,13.5,30.17,SE,135,0.0,0.0,47,0.00,,---,0.00,VWS V13.01,2013-01-05 01:19:00,
2013-01-04 18:24:00,31.2,13.3,30.17,SE,135,0.0,0.0,47,0.00,,---,0.00,VWS V13.01,2013-01-05 01:24:00,
2013-01-04 18:29:00,30.9,13.1,30.17,SSW,202,1.3,4.9,47,0.00,,---,0.00,VWS V13.01,2013-01-05 01:29:00,
2013-01-04 18:34:00,30.7,13.4,30.17,SSW,202,0.0,0.0,48,0.00,,---,0.00,VWS V13.01,2013-01-05 01:34:00,
2013-01-04 18:39:00,30.7,13.4,30.18,SSW,202,0.0,0.0,48,0.00,,---,0.00,VWS V13.01,2013-01-05 01:39:00,
2013-01-04 18:44:00,30.5,13.2,30.18,SSW,202,3.5,3.5,48,0.00,,---,0.00,VWS V13.01,2013-01-05 01:44:00,
2013-01-04 18:49:00,30.3,13.0,30.18,SSW,202,0.0,0.0,48,0.00,,---,0.00,VWS V13.01,2013-01-05 01:49:00,
2013-01-04 18:54:00,30.2,12.9,30.18,SSW,202,0.0,0.0,48,0.00,,---,0.00,VWS V13.01,2013-01-05 01:54:00,
2013-01-04 18:59:00,30.0,12.7,30.18,SSW,202,2.2,2.2,48,0.00,,---,0.00,VWS V13.01,2013-01-05 01:59:00,
2013-01-04 19:04:00,30.0,13.2,30.18,SSW,202,5.8,5.8,49,0.00,,---,0.00,VWS V13.01,2013-01-05 02:04:00,
2013-01-04 19:09:00,29.8,13.0,30.18,SSW,202,0.0,0.0,49,0.00,,---,0.00,VWS V13.01,2013-01-05 02:09:00,
2013-01-04 19:14:00,29.4,12.6,30.18,SSW,202,0.0,0.0,49,0.00,,---,0.00,VWS V13.01,2013-01-05 02:14:00,
2013-01-04 19:19:00,29.1,12.3,30.18,SSW,202,0.0,0.0,49,0.00,,---,0.00,VWS V13.01,2013-01-05 02:19:00,
2013-01-04 19:24:00,28.9,12.1,30.18,SSW,202,0.0,0.0,49,0.00,,---,0.00,VWS V13.01,2013-01-05 02:24:00,
2013-01-04 19:29:00,28.7,12.0,30.18,SSW,202,3.3,3.3,49,0.00,,---,0.00,VWS V13.01,2013-01-05 02:29:00,
2013-01-04 19:34:00,28.5,11.8,30.18,SW,225,0.0,0.0,49,0.00,,---,0.00,VWS V13.01,2013-01-05 02:34:00,
2013-01-04 19:39:00,28.5,11.8,30.18,SW,225,0.0,0.0,49,0.00,,---,0.00,VWS V13.01,2013-01-05 02:39:00,
2013-01-04 19:44:00,28.2,12.0,30.18,SSW,202,4.2,4.2,50,0.00,,---,0.00,VWS V13.01,2013-01-05 02:44:00,
2013-01-04 19:49:00,28.2,12.0,30.18,South,180,4.6,4.6,50,0.00,,---,0.00,VWS V13.01,2013-01-05 02:49:00,
2013-01-04 19:54:00,28.2,12.0,30.18,SSW,202,4.0,4.0,50,0.00,,---,0.00,VWS V13.01,2013-01-05 02:54:00,
2013-01-04 19:59:00,28.0,11.8,30.18,SSW,202,6.4,6.4,50,0.00,,---,0.00,VWS V13.01,2013-01-05 02:59:00,
2013-01-04 20:04:00,27.6,11.4,30.18,South,180,6.4,6.4,50,0.00,,---,0.00,VWS V13.01,2013-01-05 03:04:00,
2013-01-04 20:09:00,27.6,11.4,30.18,SW,225,2.9,2.9,50,0.00,,---,0.00,VWS V13.01,2013-01-05 03:09:00,
2013-01-04 20:14:00,27.5,11.8,30.18,SSW,202,1.1,1.1,51,0.00,,---,0.00,VWS V13.01,2013-01-05 03:14:00,
2013-01-04 20:19:00,27.3,11.6,30.18,SSE,158,0.0,0.0,51,0.00,,---,0.00,VWS V13.01,2013-01-05 03:19:00,
2013-01-04 20:24:00,27.1,11.4,30.18,SSW,202,0.0,0.0,51,0.00,,---,0.00,VWS V13.01,2013-01-05 03:24:00,
2013-01-04 20:29:00,26.9,11.2,30.18,South,180,0.0,0.0,51,0.00,,---,0.00,VWS V13.01,2013-01-05 03:29:00,
2013-01-04 20:34:00,26.7,11.0,30.18,SSW,202,0.0,0.0,51,0.00,,---,0.00,VWS V13.01,2013-01-05 03:34:00,
2013-01-04 20:39:00,26.6,11.4,30.18,SSW,202,0.0,0.0,52,0.00,,---,0.00,VWS V13.01,2013-01-05 03:39:00,
2013-01-04 20:45:00,26.4,11.2,30.18,SSW,202,0.0,0.0,52,0.00,,---,0.00,VWS V13.01,2013-01-05 03:45:00,
2013-01-04 20:50:00,26.2,11.0,30.17,SW,225,3.8,3.8,52,0.00,,---,0.00,VWS V13.01,2013-01-05 03:50:00,
2013-01-04 20:55:00,26.2,11.0,30.17,SSW,202,0.0,0.0,52,0.00,,---,0.00,VWS V13.01,2013-01-05 03:55:00,
2013-01-04 21:00:00,26.0,10.8,30.18,SSW,202,0.0,0.0,52,0.00,,---,0.00,VWS V13.01,2013-01-05 04:00:00,
2013-01-04 21:05:00,26.0,10.8,30.18,SW,225,0.0,0.0,52,0.00,,---,0.00,VWS V13.01,2013-01-05 04:05:00,
2013-01-04 21:10:00,25.8,10.6,30.19,South,180,1.1,1.1,52,0.00,,---,0.00,VWS V13.01,2013-01-05 04:10:00,
2013-01-04 21:15:00,25.7,10.5,30.19,South,180,0.0,0.0,52,0.00,,---,0.00,VWS V13.01,2013-01-05 04:15:00,
2013-01-04 21:20:00,25.7,10.5,30.19,SSW,202,0.0,2.0,52,0.00,,---,0.00,VWS V13.01,2013-01-05 04:20:00,
2013-01-04 21:25:00,25.7,10.5,30.19,South,180,0.0,0.0,52,0.00,,---,0.00,VWS V13.01,2013-01-05 04:25:00,
2013-01-04 21:30:00,25.5,10.3,30.19,SSW,202,7.1,7.1,52,0.00,,---,0.00,VWS V13.01,2013-01-05 04:30:00,
2013-01-04 21:35:00,25.5,10.3,30.19,SSW,202,9.3,9.3,52,0.00,,---,0.00,VWS V13.01,2013-01-05 04:35:00,
2013-01-04 21:40:00,25.5,10.3,30.19,SW,225,5.3,7.3,52,0.00,,---,0.00,VWS V13.01,2013-01-05 04:40:00,
2013-01-04 21:45:00,25.5,10.3,30.19,SSW,202,7.1,7.1,52,0.00,,---,0.00,VWS V13.01,2013-01-05 04:45:00,
2013-01-04 21:50:00,25.5,10.3,30.19,SSW,202,4.6,6.2,52,0.00,,---,0.00,VWS V13.01,2013-01-05 04:50:00,
2013-01-04 21:55:00,25.3,10.1,30.19,SSW,202,2.4,7.1,52,0.00,,---,0.00,VWS V13.01,2013-01-05 04:55:00,
2013-01-04 22:00:00,25.3,10.1,30.19,SSW,202,0.0,0.0,52,0.00,,---,0.00,VWS V13.01,2013-01-05 05:00:00,
2013-01-04 22:02:00,25.3,10.1,30.19,SSW,202,3.8,3.8,52,0.00,,---,0.00,VWS V13.01,2013-01-05 05:02:00,
2013-01-04 22:03:00,25.3,10.1,30.19,South,180,1.7,3.8,52,0.00,,---,0.00,VWS V13.01,2013-01-05 05:03:00,
2013-01-04 22:04:00,25.3,10.1,30.19,South,180,1.7,1.7,52,0.00,,---,0.00,VWS V13.01,2013-01-05 05:04:00,
2013-01-04 22:09:00,25.1,10.0,30.19,SW,225,0.0,0.0,52,0.00,,---,0.00,VWS V13.01,2013-01-05 05:09:00,
2013-01-04 22:14:00,25.1,10.0,30.19,SSW,202,2.2,2.9,52,0.00,,---,0.00,VWS V13.01,2013-01-05 05:14:00,
2013-01-04 22:19:00,25.1,10.0,30.19,SSW,202,0.0,0.0,52,0.00,,---,0.00,VWS V13.01,2013-01-05 05:19:00,
2013-01-04 22:24:00,25.1,10.0,30.19,SSW,202,4.0,4.0,52,0.00,,---,0.00,VWS V13.01,2013-01-05 05:24:00,
2013-01-04 22:29:00,24.9,9.8,30.20,SSW,202,0.0,0.0,52,0.00,,---,0.00,VWS V13.01,2013-01-05 05:29:00,
2013-01-04 22:34:00,24.9,10.2,30.20,SSW,202,5.1,5.1,53,0.00,,---,0.00,VWS V13.01,2013-01-05 05:34:00,
2013-01-04 22:39:00,24.9,10.2,30.19,SSW,202,3.3,3.3,53,0.00,,---,0.00,VWS V13.01,2013-01-05 05:39:00,
2013-01-04 22:44:00,24.9,10.2,30.19,SSW,202,4.2,4.4,53,0.00,,---,0.00,VWS V13.01,2013-01-05 05:44:00,
2013-01-04 22:49:00,24.9,10.2,30.20,SSW,202,0.0,0.0,53,0.00,,---,0.00,VWS V13.01,2013-01-05 05:49:00,
2013-01-04 22:55:00,24.9,10.2,30.20,SSW,202,4.0,4.0,53,0.00,,---,0.00,VWS V13.01,2013-01-05 05:55:00,
2013-01-04 23:00:00,24.9,10.6,30.20,SSW,202,0.0,0.0,54,0.00,,---,0.00,VWS V13.01,2013-01-05 06:00:00,
2013-01-04 23:05:00,24.9,10.6,30.20,SSW,202,2.4,3.5,54,0.00,,---,0.00,VWS V13.01,2013-01-05 06:05:00,
2013-01-04 23:10:00,24.9,10.6,30.20,SSW,202,6.2,6.2,54,0.00,,---,0.00,VWS V13.01,2013-01-05 06:10:00,
2013-01-04 23:15:00,24.9,10.6,30.19,SSW,202,10.0,10.0,54,0.00,,---,0.00,VWS V13.01,2013-01-05 06:15:00,
2013-01-04 23:20:00,24.8,10.5,30.20,South,180,10.2,10.2,54,0.00,,---,0.00,VWS V13.01,2013-01-05 06:20:00,
2013-01-04 23:25:00,24.8,10.5,30.20,SSW,202,3.1,3.1,54,0.00,,---,0.00,VWS V13.01,2013-01-05 06:25:00,
2013-01-04 23:30:00,24.6,10.3,30.20,South,180,0.0,0.0,54,0.00,,---,0.00,VWS V13.01,2013-01-05 06:30:00,
2013-01-04 23:35:00,24.6,10.3,30.20,South,180,0.0,6.9,54,0.00,,---,0.00,VWS V13.01,2013-01-05 06:35:00,
2013-01-04 23:40:00,24.6,10.3,30.20,SSW,202,2.4,2.4,54,0.00,,---,0.00,VWS V13.01,2013-01-05 06:40:00,
2013-01-04 23:45:00,24.4,10.1,30.21,SSW,202,0.0,0.0,54,0.00,,---,0.00,VWS V13.01,2013-01-05 06:45:00,
2013-01-04 23:50:00,24.4,10.1,30.21,SSW,202,5.5,5.5,54,0.00,,---,0.00,VWS V13.01,2013-01-05 06:50:00,
2013-01-04 23:55:00,24.4,10.1,30.21,SSW,202,3.3,6.2,54,0.00,,---,0.00,VWS V13.01,2013-01-05 06:55:00,